Time;durP1;ratioP1;P1;durP2;ratioP2;P2;SDS_P1;SDS_P2;PMS_P1;PMS_P2;Temp;Humidity;BMP_temperature;BMP_pressure;BME280_temperature;BME280_humidity;BME280_pressure;Samples;Min_cycle;Max_cycle;Signal;HPM_P1;HPM_P2
2022/03/17 00:01:09;;;;;;;;;;;;;;;4.26;76.94;100064.09;4986488;28;19926;-81
2022/03/17 00:03:34;;;;;;;;;;;;;;;4.25;76.77;100070.22;4986961;28;19922;-82
2022/03/17 00:05:59;;;;;;;;;;;;;;;4.28;76.72;100070.19;4986185;28;19928;-82
2022/03/17 00:08:24;;;;;;;;;;;;;;;4.29;76.88;100073.66;4995527;28;20448;-83
2022/03/17 00:10:50;;;;;;;;;;;;;;;4.30;77.00;100078.91;4985361;28;19953;-81
2022/03/17 00:13:15;;;;;;;;;;;;;;;4.32;77.05;100081.50;4980630;28;19961;-82
2022/03/17 00:15:40;;;;;;;;;;;;;;;4.32;77.12;100071.91;4986745;28;19925;-85
2022/03/17 00:18:06;;;;;;;;;;;;;;;4.33;77.21;100078.00;4984272;28;19922;-82
2022/03/17 00:20:31;;;;;;;;;;;;;;;4.34;77.15;100070.13;4984296;28;19925;-83
2022/03/17 00:22:56;;;;;;;;;;;;;;;4.35;77.18;100081.47;4993500;28;19922;-84
2022/03/17 00:25:22;;;;;;;;;;;;;;;4.38;77.23;100081.44;5004990;28;19929;-84
2022/03/17 00:27:47;;;;;;;;;;;;;;;4.43;77.43;100074.34;4987030;28;19918;-84
2022/03/17 00:30:13;;;;;;;;;;;;;;;4.43;77.75;100073.50;4984488;28;20266;-82
2022/03/17 00:32:39;;;;;;;;;;;;;;;4.45;77.90;100077.84;4986140;28;19917;-83
2022/03/17 04:39:31;;;;;;;;;;;;;;;3.53;99.53;100221.25;5560814;23;19937;-83
2022/03/17 04:41:57;;;;;;;;;;;;;;;3.44;99.39;100211.69;5004434;28;19921;-83
2022/03/17 04:44:22;;;;;;;;;;;;;;;3.41;99.61;100222.19;5023799;28;19919;-82
2022/03/17 04:46:47;;;;;;;;;;;;;;;3.52;99.59;100218.63;5006486;28;19917;-81
2022/03/17 04:49:12;;;;;;;;;;;;;;;3.47;98.94;100231.75;5006288;28;19918;-82
2022/03/17 04:51:38;;;;;;;;;;;;;;;3.52;98.53;100234.34;5024004;28;19956;-82
2022/03/17 04:54:03;;;;;;;;;;;;;;;3.39;98.60;100237.03;5005099;28;20528;-81
2022/03/17 04:56:28;;;;;;;;;;;;;;;3.44;98.73;100239.63;5024089;28;20415;-83
2022/03/17 04:58:54;;;;;;;;;;;;;;;3.39;98.23;100244.91;5023738;28;19921;-80
2022/03/17 05:01:19;;;;;;;;;;;;;;;3.40;97.77;100251.91;5023594;28;19918;-83
2022/03/17 05:03:45;;;;;;;;;;;;;;;3.39;97.87;100251.91;5023212;28;19921;-85
2022/03/17 05:06:11;;;;;;;;;;;;;;;3.36;97.41;100259.78;5006196;28;20368;-83
2022/03/17 05:08:36;;;;;;;;;;;;;;;3.49;97.08;100257.94;5021847;28;20291;-83
2022/03/17 05:11:02;;;;;;;;;;;;;;;3.46;96.39;100261.44;5022901;28;19922;-79
2022/03/17 05:13:28;;;;;;;;;;;;;;;3.32;96.47;100253.69;5023051;28;20335;-80
2022/03/17 05:15:53;;;;;;;;;;;;;;;3.23;96.40;100256.34;5022258;28;19925;-81
2022/03/17 05:18:19;;;;;;;;;;;;;;;3.44;97.21;100255.34;5023060;28;20008;-80
2022/03/17 05:20:44;;;;;;;;;;;;;;;3.35;97.67;100261.53;5003662;28;19922;-80
2022/03/17 05:23:10;;;;;;;;;;;;;;;3.38;97.74;100272.00;5004398;28;19917;-81
2022/03/17 05:25:36;;;;;;;;;;;;;;;3.38;97.88;100284.22;5023026;28;19924;-80
2022/03/17 05:28:02;;;;;;;;;;;;;;;3.48;97.49;100283.28;5004088;28;19918;-82
2022/03/17 05:30:27;;;;;;;;;;;;;;;3.36;97.27;100288.59;5005221;28;19928;-80
2022/03/17 05:32:53;;;;;;;;;;;;;;;3.30;97.43;100289.47;5005676;28;19971;-83
2022/03/17 05:35:18;;;;;;;;;;;;;;;3.38;97.23;100292.97;5000373;28;19917;-81
2022/03/17 05:37:44;;;;;;;;;;;;;;;3.26;96.96;100300.88;5022661;28;19921;-81
2022/03/17 05:40:13;;;;;;;;;;;;;;;3.23;97.04;100311.34;5017242;28;19921;-83
2022/03/17 05:42:39;;;;;;;;;;;;;;;3.29;96.81;100311.34;5010712;28;19917;-80
2022/03/17 05:45:04;;;;;;;;;;;;;;;3.33;96.37;100306.94;5011851;28;20376;-81
2022/03/17 05:47:34;;;;;;;;;;;;;;;3.25;95.90;100309.59;5012653;28;20114;-80
2022/03/17 05:49:59;;;;;;;;;;;;;;;3.24;95.65;100311.34;5011426;28;20016;-81
2022/03/17 05:52:24;;;;;;;;;;;;;;;3.33;95.15;100317.41;5011874;28;20024;-82
2022/03/17 05:54:49;;;;;;;;;;;;;;;3.30;94.74;100318.28;5010226;28;19917;-82
2022/03/17 08:53:41;;;;;;;;;;;;;;;2.96;83.49;100576.75;5305069;23;19929;-83
2022/03/17 08:56:06;;;;;;;;;;;;;;;2.98;83.67;100583.72;5032337;28;20000;-83
2022/03/17 08:58:34;;;;;;;;;;;;;;;3.02;83.92;100585.50;5053551;28;19925;-81
2022/03/17 09:01:00;;;;;;;;;;;;;;;3.00;84.19;100592.47;5053779;28;20375;-82
2022/03/17 09:03:26;;;;;;;;;;;;;;;3.00;84.16;100592.47;5053111;28;19928;-83
2022/03/17 09:05:51;;;;;;;;;;;;;;;3.00;84.05;100589.88;5053201;28;20692;-83
2022/03/17 09:08:17;;;;;;;;;;;;;;;3.03;84.13;100602.97;5034482;28;20058;-84
2022/03/17 09:10:42;;;;;;;;;;;;;;;3.04;83.97;100603.81;5035619;28;20367;-83
2022/03/17 09:13:09;;;;;;;;;;;;;;;3.03;83.89;100602.97;5052532;28;20303;-83
2022/03/17 09:15:36;;;;;;;;;;;;;;;3.03;83.79;100612.53;5053336;28;19920;-83
2022/03/17 09:18:02;;;;;;;;;;;;;;;3.04;83.67;100612.53;5035565;28;19921;-84
2022/03/17 09:20:28;;;;;;;;;;;;;;;3.08;83.69;100614.31;5053172;28;19932;-84
2022/03/17 09:22:53;;;;;;;;;;;;;;;3.07;83.36;100615.16;5052134;28;20256;-84
2022/03/17 09:25:23;;;;;;;;;;;;;;;3.11;83.32;100615.16;5053382;28;19956;-83
2022/03/17 09:27:49;;;;;;;;;;;;;;;3.09;83.46;100623.91;5051871;28;19917;-83
2022/03/17 09:30:15;;;;;;;;;;;;;;;3.12;83.44;100630.03;5052603;28;19927;-84
2022/03/17 09:32:40;;;;;;;;;;;;;;;3.17;83.35;100633.50;5053336;28;19917;-84
2022/03/17 09:35:07;;;;;;;;;;;;;;;3.14;83.23;100638.75;5053116;28;19916;-84
2022/03/17 09:37:32;;;;;;;;;;;;;;;3.13;83.04;100637.00;5033985;28;19979;-82
2022/03/17 09:39:57;;;;;;;;;;;;;;;3.13;83.00;100644.84;5052674;28;19979;-82
2022/03/17 09:42:23;;;;;;;;;;;;;;;3.16;82.86;100644.84;5052904;28;19935;-82
2022/03/17 09:44:53;;;;;;;;;;;;;;;3.17;82.57;100646.59;5034205;28;19917;-79
2022/03/17 09:47:19;;;;;;;;;;;;;;;3.16;82.44;100643.13;5034794;28;19923;-81
2022/03/17 09:49:46;;;;;;;;;;;;;;;3.18;82.01;100643.13;5052936;28;19917;-83
2022/03/17 09:52:14;;;;;;;;;;;;;;;3.20;82.38;100646.63;5050708;28;20322;-81
2022/03/17 09:54:42;;;;;;;;;;;;;;;3.22;82.39;100656.22;5052656;28;19921;-81
2022/03/17 09:57:08;;;;;;;;;;;;;;;3.21;82.07;100658.84;5052617;28;19916;-83
2022/03/17 09:59:33;;;;;;;;;;;;;;;3.20;81.73;100668.44;5052434;28;20058;-80
2022/03/17 10:01:59;;;;;;;;;;;;;;;3.22;81.49;100671.94;5034474;28;19917;-85
2022/03/17 10:04:25;;;;;;;;;;;;;;;3.20;81.26;100683.28;5051806;28;19928;-81
2022/03/17 10:06:50;;;;;;;;;;;;;;;3.23;81.17;100678.91;5051362;28;19916;-80
2022/03/17 10:09:16;;;;;;;;;;;;;;;3.26;81.31;100685.91;5052319;28;19928;-84
2022/03/17 10:11:42;;;;;;;;;;;;;;;3.26;81.44;100681.53;5033976;28;19931;-83
2022/03/17 10:14:08;;;;;;;;;;;;;;;3.30;81.52;100685.03;5052195;28;19928;-80
2022/03/17 10:16:33;;;;;;;;;;;;;;;3.32;81.51;100696.41;5052170;28;19917;-84
2022/03/17 10:19:06;;;;;;;;;;;;;;;3.32;81.29;100693.78;5052337;28;19916;-81
2022/03/17 10:21:31;;;;;;;;;;;;;;;3.34;81.41;100705.13;5052187;28;19932;-81
2022/03/17 10:23:57;;;;;;;;;;;;;;;3.36;81.14;100703.38;5050976;28;19942;-84
2022/03/17 10:26:42;;;;;;;;;;;;;;;3.37;81.16;100706.91;5052108;28;20290;-83
2022/03/17 10:29:12;;;;;;;;;;;;;;;3.41;81.46;100714.72;5052160;28;19948;-85
2022/03/17 10:31:51;;;;;;;;;;;;;;;3.39;81.25;100711.25;5034260;28;19928;-82
2022/03/17 10:34:17;;;;;;;;;;;;;;;3.42;80.99;100721.72;5034118;28;19920;-83
2022/03/17 10:36:45;;;;;;;;;;;;;;;3.40;80.89;100723.50;5051727;28;19917;-80
2022/03/17 10:39:10;;;;;;;;;;;;;;;3.45;80.80;100721.75;5051269;28;19923;-83
2022/03/17 10:41:41;;;;;;;;;;;;;;;3.44;80.74;100729.59;5033770;28;20391;-84
2022/03/17 10:44:09;;;;;;;;;;;;;;;3.43;80.44;100726.13;5051229;28;19924;-83
2022/03/17 10:46:34;;;;;;;;;;;;;;;3.47;80.45;100733.97;5051887;28;20359;-84
2022/03/17 10:49:00;;;;;;;;;;;;;;;3.49;80.13;100732.22;5034049;28;20007;-82
2022/03/17 10:51:40;;;;;;;;;;;;;;;3.51;79.98;100738.34;5051144;28;19916;-82
2022/03/17 10:54:10;;;;;;;;;;;;;;;3.53;80.13;100739.22;5031743;28;19924;-84
2022/03/17 10:56:37;;;;;;;;;;;;;;;3.58;80.56;100740.09;5050647;28;19960;-83
2022/03/17 10:59:03;;;;;;;;;;;;;;;3.60;80.83;100735.72;5051731;28;19951;-81
2022/03/17 11:01:38;;;;;;;;;;;;;;;3.58;80.56;100746.22;5032809;28;20006;-81
2022/03/17 11:04:07;;;;;;;;;;;;;;;3.61;80.51;100750.59;5033765;28;19917;-83
2022/03/17 11:06:32;;;;;;;;;;;;;;;3.61;80.44;100740.13;5051476;28;19964;-81
2022/03/17 11:09:01;;;;;;;;;;;;;;;3.60;80.26;100746.22;5050621;28;19964;-81
2022/03/17 11:11:29;;;;;;;;;;;;;;;3.62;80.04;100754.94;5051682;28;19913;-84
2022/03/17 11:13:56;;;;;;;;;;;;;;;3.62;79.49;100749.69;5033768;28;19917;-84
2022/03/17 11:16:22;;;;;;;;;;;;;;;3.62;79.39;100749.69;5051612;28;20368;-82
2022/03/17 11:18:49;;;;;;;;;;;;;;;3.70;79.88;100750.63;5050863;28;20326;-80
2022/03/17 11:21:16;;;;;;;;;;;;;;;3.70;79.88;100758.47;5033593;28;19912;-79
2022/03/17 11:23:56;;;;;;;;;;;;;;;3.74;79.94;100754.97;5050320;28;19942;-80
2022/03/17 11:26:35;;;;;;;;;;;;;;;3.74;79.78;100761.97;5051011;28;19964;-81
2022/03/17 11:29:08;;;;;;;;;;;;;;;3.73;79.63;100763.69;5050914;28;20012;-80
2022/03/17 11:31:51;;;;;;;;;;;;;;;3.76;79.96;100766.31;5051342;28;19927;-80
2022/03/17 11:34:52;;;;;;;;;;;;;;;3.80;79.72;100769.84;5051312;28;19924;-82
2022/03/17 11:37:20;;;;;;;;;;;;;;;3.79;79.33;100760.22;4987524;28;19918;-84
2022/03/17 11:39:56;;;;;;;;;;;;;;;3.80;79.14;100754.97;5038661;28;19924;-83
2022/03/17 11:42:34;;;;;;;;;;;;;;;3.81;79.03;100769.84;5050645;28;19920;-83
2022/03/17 11:45:07;;;;;;;;;;;;;;;3.87;79.07;100765.47;5050545;28;19921;-82
2022/03/17 11:47:36;;;;;;;;;;;;;;;3.88;79.41;100770.72;5050656;28;20299;-83
2022/03/17 11:50:20;;;;;;;;;;;;;;;3.89;79.92;100775.06;5050560;28;20281;-82
2022/03/17 11:52:49;;;;;;;;;;;;;;;3.91;80.51;100777.69;5049780;28;19924;-81
2022/03/17 11:55:55;;;;;;;;;;;;;;;4.00;81.28;100777.69;5051052;28;20349;-81
2022/03/17 11:58:43;;;;;;;;;;;;;;;3.98;81.71;100777.69;4950196;28;19918;-80
2022/03/17 12:01:13;;;;;;;;;;;;;;;3.97;81.68;100790.81;5048504;28;20291;-83
2022/03/17 12:03:42;;;;;;;;;;;;;;;4.03;82.32;100782.06;5050557;28;20380;-80
2022/03/17 12:06:07;;;;;;;;;;;;;;;4.07;82.81;100792.56;5033175;28;20376;-84
2022/03/17 12:08:38;;;;;;;;;;;;;;;4.09;82.90;100790.81;5031904;28;19967;-82
2022/03/17 12:11:11;;;;;;;;;;;;;;;4.07;82.86;100795.19;5053554;28;19932;-81
2022/03/17 12:13:37;;;;;;;;;;;;;;;4.08;82.89;100790.81;5035912;28;19943;-85
2022/03/17 12:16:03;;;;;;;;;;;;;;;4.09;82.95;100798.69;5054694;28;20023;-82
2022/03/17 12:18:28;;;;;;;;;;;;;;;4.12;83.14;100795.19;5054374;28;19917;-84
2022/03/17 12:20:54;;;;;;;;;;;;;;;4.13;82.80;100792.56;5054329;28;20295;-81
2022/03/17 12:23:38;;;;;;;;;;;;;;;4.16;82.67;100800.44;5052888;28;19917;-83
2022/03/17 12:26:04;;;;;;;;;;;;;;;4.14;82.12;100799.53;5053363;28;19928;-81
2022/03/17 12:28:30;;;;;;;;;;;;;;;4.15;82.04;100803.94;5036029;28;19917;-81
2022/03/17 12:30:57;;;;;;;;;;;;;;;4.17;81.65;100806.56;5054345;28;20016;-85
2022/03/17 12:33:23;;;;;;;;;;;;;;;4.19;81.39;100805.66;5053107;28;19924;-84
2022/03/17 12:36:02;;;;;;;;;;;;;;;4.23;81.20;100810.91;5054092;28;19921;-80
2022/03/17 12:38:27;;;;;;;;;;;;;;;4.23;81.78;100806.56;5052287;28;19917;-84
2022/03/17 12:40:53;;;;;;;;;;;;;;;4.29;81.91;100805.66;5054263;28;20329;-85
2022/03/17 12:43:20;;;;;;;;;;;;;;;4.31;82.23;100811.81;5054139;28;19932;-84
2022/03/17 12:45:47;;;;;;;;;;;;;;;4.30;82.02;100820.53;5034585;28;20386;-82
2022/03/17 12:48:13;;;;;;;;;;;;;;;4.27;81.48;100812.66;5051984;28;20023;-81
2022/03/17 12:50:38;;;;;;;;;;;;;;;4.36;81.70;100816.16;5035706;28;20003;-80
2022/03/17 12:53:04;;;;;;;;;;;;;;;4.53;82.89;100816.13;5052474;28;19928;-81
2022/03/17 12:55:29;;;;;;;;;;;;;;;4.64;84.93;100818.75;5034962;28;19925;-84
2022/03/17 12:57:55;;;;;;;;;;;;;;;4.68;86.59;100823.09;5053901;28;20348;-84
2022/03/17 13:00:22;;;;;;;;;;;;;;;4.67;87.70;100823.97;5029651;28;19921;-84
2022/03/17 13:02:48;;;;;;;;;;;;;;;4.61;88.67;100817.88;5034976;28;20388;-81
2022/03/17 13:08:06;;;;;;;;;;;;;;;4.51;90.30;100831.00;5036132;28;19916;-80
2022/03/17 13:16:02;;;;;;;;;;;;;;;4.10;91.71;100823.16;5053581;28;19967;-80
2022/03/17 13:18:47;;;;;;;;;;;;;;;4.05;92.15;100828.38;5053362;28;19960;-80
2022/03/17 13:21:13;;;;;;;;;;;;;;;4.10;93.57;100836.25;5052270;28;19927;-80
2022/03/17 13:23:39;;;;;;;;;;;;;;;4.19;95.31;100837.13;5034043;28;20346;-81
2022/03/17 13:26:04;;;;;;;;;;;;;;;4.35;98.25;100831.91;5035194;28;19916;-80
2022/03/17 13:28:29;;;;;;;;;;;;;;;4.60;100.00;100834.50;5035246;28;19962;-83
2022/03/17 13:30:56;;;;;;;;;;;;;;;4.74;100.00;100830.09;5053312;28;19917;-84
2022/03/17 13:33:32;;;;;;;;;;;;;;;4.89;100.00;100834.44;5035331;28;20449;-81
2022/03/17 13:35:58;;;;;;;;;;;;;;;4.96;100.00;100830.88;5052363;28;19928;-83
2022/03/17 13:38:37;;;;;;;;;;;;;;;5.02;100.00;100832.63;5033948;28;20379;-81
2022/03/17 13:41:03;;;;;;;;;;;;;;;5.07;100.00;100837.00;5034876;28;19921;-83
2022/03/17 13:43:35;;;;;;;;;;;;;;;5.13;100.00;100838.72;5053061;28;19940;-80
2022/03/17 13:46:01;;;;;;;;;;;;;;;5.15;100.00;100836.09;5052516;28;20019;-84
2022/03/17 13:48:27;;;;;;;;;;;;;;;5.25;100.00;100848.34;5035025;28;20269;-84
2022/03/17 13:50:54;;;;;;;;;;;;;;;5.28;100.00;100841.31;5052709;28;19921;-84
2022/03/17 13:53:44;;;;;;;;;;;;;;;5.33;100.00;100843.03;5032686;28;19960;-83
2022/03/17 13:56:10;;;;;;;;;;;;;;;5.33;100.00;100850.91;5034061;28;20003;-83
2022/03/17 13:58:39;;;;;;;;;;;;;;;5.39;100.00;100856.13;5034602;28;19912;-84
2022/03/17 14:01:09;;;;;;;;;;;;;;;5.38;100.00;100855.28;5052655;28;19927;-80
2022/03/17 14:03:34;;;;;;;;;;;;;;;5.42;100.00;100861.38;5034307;28;19916;-80
2022/03/17 14:06:08;;;;;;;;;;;;;;;5.43;100.00;100860.50;5034703;28;19916;-80
2022/03/17 14:08:34;;;;;;;;;;;;;;;5.42;100.00;100864.88;5032722;28;19927;-80
2022/03/17 14:11:04;;;;;;;;;;;;;;;5.45;100.00;100859.59;5024517;28;19920;-83
2022/03/17 14:13:30;;;;;;;;;;;;;;;5.49;100.00;100871.00;5052426;28;20367;-83
2022/03/17 14:15:55;;;;;;;;;;;;;;;5.50;100.00;100866.59;5052225;28;19921;-81
2022/03/17 14:18:21;;;;;;;;;;;;;;;5.48;100.00;100866.63;5052327;28;19921;-80
2022/03/17 14:20:46;;;;;;;;;;;;;;;5.52;100.00;100871.00;5052227;28;19917;-79
2022/03/17 14:25:56;;;;;;;;;;;;;;;5.58;100.00;100873.56;5052310;28;19927;-81
2022/03/17 14:28:22;;;;;;;;;;;;;;;5.22;100.00;100875.50;5052159;28;20301;-80
2022/03/17 14:30:49;;;;;;;;;;;;;;;4.46;100.00;100877.38;5051475;28;19921;-84
2022/03/17 14:33:14;;;;;;;;;;;;;;;4.22;100.00;100883.50;5034044;28;19921;-83
2022/03/17 14:35:39;;;;;;;;;;;;;;;3.99;100.00;100886.13;5052039;28;19939;-80
2022/03/17 14:38:05;;;;;;;;;;;;;;;3.86;100.00;100887.84;5050879;28;19920;-84
2022/03/17 14:40:31;;;;;;;;;;;;;;;3.87;100.00;100886.09;5051960;28;19917;-83
2022/03/17 14:42:57;;;;;;;;;;;;;;;3.85;100.00;100882.59;5051954;28;19917;-81
2022/03/17 14:45:22;;;;;;;;;;;;;;;3.68;100.00;100891.25;5050474;28;20327;-81
2022/03/17 14:47:47;;;;;;;;;;;;;;;3.75;100.00;100894.78;5033794;28;19921;-84
2022/03/17 14:50:13;;;;;;;;;;;;;;;3.71;100.00;100896.50;5050498;28;19967;-83
2022/03/17 14:52:38;;;;;;;;;;;;;;;3.67;100.00;100894.78;5050457;28;19960;-81
2022/03/17 14:55:03;;;;;;;;;;;;;;;3.67;100.00;100901.75;5051861;28;19920;-83
2022/03/17 14:57:29;;;;;;;;;;;;;;;3.72;99.11;100902.63;5051784;28;20364;-84
2022/03/17 14:59:56;;;;;;;;;;;;;;;3.51;98.37;100903.44;5033742;28;19928;-84
2022/03/17 15:02:21;;;;;;;;;;;;;;;3.52;98.07;100907.81;5050818;28;19999;-84
2022/03/17 15:04:47;;;;;;;;;;;;;;;3.50;97.59;100912.19;5051671;28;19921;-83
2022/03/17 15:07:12;;;;;;;;;;;;;;;3.41;96.94;100913.00;5050405;28;19954;-83
2022/03/17 15:09:37;;;;;;;;;;;;;;;3.50;96.38;100914.81;5051650;28;20368;-83
2022/03/17 15:12:03;;;;;;;;;;;;;;;3.51;95.93;100920.06;5051397;28;19917;-82
2022/03/17 15:14:28;;;;;;;;;;;;;;;3.43;95.71;100908.63;5051054;28;20275;-82
2022/03/17 15:16:54;;;;;;;;;;;;;;;3.37;95.18;100922.59;5033630;28;19975;-84
2022/03/17 15:19:19;;;;;;;;;;;;;;;3.47;94.68;100914.78;5051606;28;20348;-85
2022/03/17 15:21:44;;;;;;;;;;;;;;;3.46;93.70;100919.13;5051485;28;20458;-84
2022/03/17 15:24:09;;;;;;;;;;;;;;;3.37;93.31;100919.13;5032405;28;20015;-83
2022/03/17 15:26:35;;;;;;;;;;;;;;;3.44;93.01;100924.38;5051444;28;19924;-80
2022/03/17 15:31:45;;;;;;;;;;;;;;;3.30;92.26;100927.81;5051349;28;19924;-83
2022/03/17 15:34:10;;;;;;;;;;;;;;;3.31;92.05;100925.19;5033585;28;19956;-81
2022/03/17 15:36:35;;;;;;;;;;;;;;;3.25;91.39;100927.78;5046808;28;19956;-83
2022/03/17 15:39:01;;;;;;;;;;;;;;;3.25;90.98;100922.53;5050153;28;20003;-83
2022/03/17 15:41:26;;;;;;;;;;;;;;;3.18;90.79;100931.25;5045963;28;19967;-84
2022/03/17 15:43:52;;;;;;;;;;;;;;;3.32;90.32;100940.06;5033467;28;19925;-84
2022/03/17 15:46:17;;;;;;;;;;;;;;;3.19;90.00;100943.44;5055323;28;20399;-83
2022/03/17 15:48:42;;;;;;;;;;;;;;;3.36;89.64;100946.19;5055131;28;19920;-83
2022/03/17 15:51:08;;;;;;;;;;;;;;;3.24;89.87;100963.59;5036412;28;19920;-82
2022/03/17 15:53:34;;;;;;;;;;;;;;;3.39;89.78;100952.31;5035794;28;20066;-83
2022/03/17 15:55:59;;;;;;;;;;;;;;;3.16;89.34;100961.75;5054995;28;19943;-84
2022/03/17 15:58:24;;;;;;;;;;;;;;;3.10;89.54;100960.00;5054785;28;19913;-83
2022/03/17 16:00:49;;;;;;;;;;;;;;;3.13;88.83;100966.97;5054998;28;19925;-83
2022/03/17 16:03:15;;;;;;;;;;;;;;;3.08;88.48;100965.22;5054645;28;19930;-82
2022/03/17 16:05:41;;;;;;;;;;;;;;;3.14;88.72;100969.63;5054796;28;19920;-85
2022/03/17 16:08:06;;;;;;;;;;;;;;;3.13;88.45;100969.59;5053295;28;20368;-83
2022/03/17 16:16:00;;;;;;;;;;;;;;;3.11;88.17;100976.59;5054874;28;19924;-84
2022/03/17 16:18:26;;;;;;;;;;;;;;;3.11;87.96;100974.81;5054653;28;19916;-84
2022/03/17 16:20:51;;;;;;;;;;;;;;;3.12;88.01;100973.09;5036635;28;19976;-83
2022/03/17 16:23:18;;;;;;;;;;;;;;;3.01;87.88;100984.38;5053204;28;19917;-81
2022/03/17 16:25:44;;;;;;;;;;;;;;;3.05;87.92;100983.53;5054311;28;20337;-83
2022/03/17 16:28:10;;;;;;;;;;;;;;;2.99;87.65;100986.09;5054438;28;19999;-81
2022/03/17 16:30:35;;;;;;;;;;;;;;;2.88;87.69;100991.25;5050682;28;20375;-88
2022/03/17 16:33:00;;;;;;;;;;;;;;;2.96;87.58;100991.31;5054334;28;19931;-92
2022/03/17 16:35:26;;;;;;;;;;;;;;;3.03;87.37;100992.25;5052463;28;19924;-91
2022/03/17 16:37:51;;;;;;;;;;;;;;;2.97;87.44;101000.03;5032540;28;19929;-90
2022/03/17 16:40:17;;;;;;;;;;;;;;;2.93;87.00;101004.38;5036380;28;20474;-91
2022/03/17 16:42:42;;;;;;;;;;;;;;;2.94;87.00;101011.38;5035242;28;19925;-87
2022/03/17 16:45:08;;;;;;;;;;;;;;;2.88;86.52;101012.19;5054217;28;19917;-92
2022/03/17 16:47:34;;;;;;;;;;;;;;;2.87;86.77;101012.19;5036118;28;19925;-85
2022/03/17 16:49:59;;;;;;;;;;;;;;;2.94;86.44;101021.84;5035948;28;20422;-85
2022/03/17 16:52:25;;;;;;;;;;;;;;;2.81;86.24;101018.25;5033107;28;19920;-86
2022/03/17 16:54:50;;;;;;;;;;;;;;;2.76;86.28;101029.53;5051785;28;19974;-92
2022/03/17 16:57:15;;;;;;;;;;;;;;;2.90;86.07;101031.44;5034662;28;19921;-85
2022/03/17 16:59:42;;;;;;;;;;;;;;;2.84;85.86;101031.38;5035744;28;20399;-89
2022/03/17 17:02:08;;;;;;;;;;;;;;;2.91;86.01;101035.78;5034815;28;19959;-90
2022/03/17 17:04:35;;;;;;;;;;;;;;;2.83;85.90;101041.84;5033889;28;19971;-85
2022/03/17 17:07:02;;;;;;;;;;;;;;;2.77;85.62;101044.41;5050958;28;19936;-83
2022/03/17 17:09:27;;;;;;;;;;;;;;;2.80;85.46;101047.06;5052428;28;20364;-84
2022/03/17 17:11:53;;;;;;;;;;;;;;;2.80;85.34;101050.53;5053302;28;19924;-85
2022/03/17 17:14:18;;;;;;;;;;;;;;;2.78;84.93;101049.66;5051788;28;19931;-85
2022/03/17 17:16:54;;;;;;;;;;;;;;;2.84;84.59;101065.41;5052510;28;19917;-90
2022/03/17 17:19:23;;;;;;;;;;;;;;;2.93;84.67;101062.00;5052090;28;19960;-85
2022/03/17 17:21:48;;;;;;;;;;;;;;;2.76;84.37;101064.47;5034699;28;20375;-83
2022/03/17 17:32:28;;;;;;;;;;;;;;;2.78;83.81;101077.59;5052213;28;19977;-84
2022/03/17 17:34:53;;;;;;;;;;;;;;;2.75;83.72;101078.41;5034534;28;19921;-89
2022/03/17 17:37:18;;;;;;;;;;;;;;;2.73;83.42;101088.00;5032886;28;19921;-84
2022/03/17 17:39:45;;;;;;;;;;;;;;;2.80;83.42;101096.78;5050459;28;20330;-88
2022/03/17 17:42:11;;;;;;;;;;;;;;;2.68;83.19;101101.03;5033471;28;19967;-85
2022/03/17 17:44:37;;;;;;;;;;;;;;;2.73;83.16;101104.56;5033866;28;19943;-90
2022/03/17 17:47:02;;;;;;;;;;;;;;;2.69;83.57;101108.00;5033860;28;19932;-90
2022/03/17 17:49:28;;;;;;;;;;;;;;;2.80;83.87;101102.88;5032322;28;20434;-86
2022/03/17 17:51:53;;;;;;;;;;;;;;;2.87;83.73;101123.03;5051361;28;19928;-84
2022/03/17 17:54:18;;;;;;;;;;;;;;;2.76;83.55;101110.69;5050265;28;19924;-89
2022/03/17 17:56:43;;;;;;;;;;;;;;;2.76;83.35;101113.31;5033665;28;20056;-86
2022/03/17 17:59:10;;;;;;;;;;;;;;;2.69;83.02;101121.09;5034671;28;20389;-87
2022/03/17 18:01:38;;;;;;;;;;;;;;;2.69;82.56;101121.09;5033411;28;20296;-90
2022/03/17 18:04:03;;;;;;;;;;;;;;;2.73;82.61;101129.88;5051721;28;19925;-87
2022/03/17 18:06:28;;;;;;;;;;;;;;;2.67;82.37;101122.81;5032158;28;19943;-88
2022/03/17 18:08:54;;;;;;;;;;;;;;;2.65;82.33;101129.78;5030804;28;19936;-84
2022/03/17 18:11:19;;;;;;;;;;;;;;;2.61;82.21;101133.22;5050545;28;19952;-87
2022/03/17 18:13:46;;;;;;;;;;;;;;;2.64;82.15;101135.88;5050552;28;19921;-88
2022/03/17 18:16:12;;;;;;;;;;;;;;;2.70;82.06;101138.56;5033809;28;19921;-89
2022/03/17 18:18:38;;;;;;;;;;;;;;;2.65;82.17;101142.88;5034152;28;20012;-88
2022/03/17 18:21:03;;;;;;;;;;;;;;;2.71;82.44;101144.66;5051597;28;19992;-86
2022/03/17 18:23:28;;;;;;;;;;;;;;;2.65;82.18;101148.13;5033165;28;19921;-92
2022/03/17 18:25:55;;;;;;;;;;;;;;;2.70;82.12;101148.16;5032952;28;19920;-86
2022/03/17 18:28:21;;;;;;;;;;;;;;;2.69;81.86;101149.88;5050201;28;19925;-82
2022/03/17 18:30:46;;;;;;;;;;;;;;;2.68;81.80;101170.81;5050767;28;19921;-82
2022/03/17 18:33:12;;;;;;;;;;;;;;;2.70;81.75;101172.59;5033794;28;19947;-84
2022/03/17 18:35:37;;;;;;;;;;;;;;;2.66;81.68;101162.06;5033450;28;20016;-82
2022/03/17 18:38:08;;;;;;;;;;;;;;;2.68;81.33;101168.19;5032324;28;20050;-83
2022/03/17 18:40:34;;;;;;;;;;;;;;;2.62;81.10;101176.00;5029384;28;20409;-80
2022/03/17 18:42:59;;;;;;;;;;;;;;;2.67;81.10;101169.94;5033951;28;19916;-82
2022/03/17 18:45:24;;;;;;;;;;;;;;;2.66;80.88;101177.78;5051843;28;20257;-83
2022/03/17 18:47:49;;;;;;;;;;;;;;;2.64;80.86;101176.88;5050950;28;19923;-84
2022/03/17 18:50:15;;;;;;;;;;;;;;;2.66;80.67;101173.41;5049869;28;19945;-84
2022/03/17 18:52:41;;;;;;;;;;;;;;;2.67;80.76;101180.41;5032450;28;20269;-83
2022/03/17 18:55:07;;;;;;;;;;;;;;;2.65;80.88;101184.75;5048694;28;20373;-84
2022/03/17 18:57:32;;;;;;;;;;;;;;;2.70;80.81;101195.28;5031482;28;19932;-83
2022/03/17 18:59:58;;;;;;;;;;;;;;;2.67;80.60;101198.72;5049262;28;19921;-84
2022/03/17 19:02:23;;;;;;;;;;;;;;;2.68;80.67;101202.22;5032794;28;20367;-83
2022/03/17 19:04:49;;;;;;;;;;;;;;;2.72;80.94;101202.28;5033171;28;19928;-83
2022/03/17 19:07:14;;;;;;;;;;;;;;;2.71;80.73;101216.25;5049895;28;19924;-82
2022/03/17 19:09:39;;;;;;;;;;;;;;;2.73;80.37;101216.25;5032421;28;20441;-82
2022/03/17 19:12:05;;;;;;;;;;;;;;;2.70;80.13;101216.22;5033261;28;19925;-84
2022/03/17 19:14:31;;;;;;;;;;;;;;;2.69;79.88;101219.69;5031310;28;19928;-81
2022/03/17 19:16:56;;;;;;;;;;;;;;;2.73;79.62;101227.59;5050957;28;19928;-82
2022/03/17 19:19:21;;;;;;;;;;;;;;;2.71;79.57;101237.19;5036847;28;19959;-84
2022/03/17 19:21:47;;;;;;;;;;;;;;;2.73;79.63;101245.06;5035930;28;20287;-83
2022/03/17 19:24:12;;;;;;;;;;;;;;;2.72;79.62;101246.78;5052103;28;19987;-82
2022/03/17 19:26:38;;;;;;;;;;;;;;;2.73;79.54;101248.53;5054041;28;19959;-84
2022/03/17 19:29:03;;;;;;;;;;;;;;;2.76;79.53;101252.03;5034664;28;19921;-83
2022/03/17 19:31:29;;;;;;;;;;;;;;;2.77;79.36;101259.91;5053828;28;19924;-82
2022/03/17 19:33:54;;;;;;;;;;;;;;;2.74;79.18;101259.88;5054526;28;20330;-84
2022/03/17 19:36:19;;;;;;;;;;;;;;;2.78;78.96;101266.94;5053673;28;19921;-84
2022/03/17 19:38:45;;;;;;;;;;;;;;;2.73;78.83;101269.47;5053731;28;19967;-85
2022/03/17 19:41:13;;;;;;;;;;;;;;;2.76;78.77;101273.00;5054201;28;19921;-82
2022/03/17 19:43:41;;;;;;;;;;;;;;;2.75;78.71;101277.34;5035601;28;19972;-82
2022/03/17 19:46:07;;;;;;;;;;;;;;;2.86;78.84;101278.38;5043987;28;19933;-80
2022/03/17 19:48:32;;;;;;;;;;;;;;;3.68;81.77;101283.63;5053061;28;20260;-83
2022/03/17 19:50:57;;;;;;;;;;;;;;;3.20;81.81;101285.75;5052978;28;20086;-80
2022/03/17 19:53:32;;;;;;;;;;;;;;;3.07;81.27;101289.97;5034577;28;19924;-83
2022/03/17 19:56:08;;;;;;;;;;;;;;;2.99;80.65;101297.72;5053453;28;19947;-82
2022/03/17 19:58:35;;;;;;;;;;;;;;;2.99;80.21;101296.84;5053898;28;19916;-83
2022/03/17 20:01:01;;;;;;;;;;;;;;;3.00;79.90;101303.84;5054375;28;19933;-84
2022/03/17 20:03:26;;;;;;;;;;;;;;;2.97;79.41;101309.94;5034993;28;19920;-83
2022/03/17 20:05:52;;;;;;;;;;;;;;;2.97;79.35;101314.28;5054526;28;20272;-84
2022/03/17 20:08:17;;;;;;;;;;;;;;;2.96;79.02;101308.16;5034814;28;19917;-83
2022/03/17 20:13:42;;;;;;;;;;;;;;;2.99;78.96;101313.44;5051755;28;19936;-83
2022/03/17 20:16:09;;;;;;;;;;;;;;;2.93;78.63;101318.59;5035397;28;20371;-84